Time;durP1;ratioP1;P1;durP2;ratioP2;P2;SDS_P1;SDS_P2;PMS_P1;PMS_P2;Temp;Humidity;BMP_temperature;BMP_pressure;BME280_temperature;BME280_humidity;BME280_pressure;Samples;Min_cycle;Max_cycle;Signal;HPM_P1;HPM_P2
2022/09/26 00:02:16;;;;;;;;;2.75;2.00;;;;;16.03;48.66;100772.44;5092282;27;70877;-39
2022/09/26 00:04:41;;;;;;;;;3.00;2.00;;;;;16.01;48.41;100772.50;5096682;27;72259;-40
2022/09/26 00:07:06;;;;;;;;;1.00;1.00;;;;;16.02;48.58;100771.56;5093835;27;50427;-40
2022/09/26 00:09:32;;;;;;;;;1.75;1.75;;;;;15.97;48.44;100760.41;5093655;27;58564;-41
2022/09/26 00:11:57;;;;;;;;;0.75;0.75;;;;;15.99;48.49;100771.72;5094701;27;73494;-40
2022/09/26 00:14:26;;;;;;;;;1.00;1.00;;;;;15.95;48.74;100764.88;5094146;27;45506;-40
2022/09/26 00:16:52;;;;;;;;;1.75;1.75;;;;;15.94;48.74;100769.31;5085627;27;45821;-40
2022/09/26 00:19:17;;;;;;;;;4.00;1.00;;;;;15.92;48.64;100757.97;5097217;27;45568;-40
2022/09/26 00:21:42;;;;;;;;;2.75;1.50;;;;;15.89;48.88;100758.13;5096528;27;56080;-40
2022/09/26 00:24:08;;;;;;;;;1.75;1.00;;;;;15.90;48.91;100758.97;5091262;27;72545;-40
2022/09/26 00:26:35;;;;;;;;;1.75;1.00;;;;;15.90;48.76;100745.75;5094548;27;66433;-39
2022/09/26 00:29:06;;;;;;;;;0.50;0.50;;;;;15.92;48.52;100739.50;5097054;27;45263;-40
2022/09/26 00:31:34;;;;;;;;;1.75;1.00;;;;;15.92;48.64;100736.00;5095004;27;46136;-39
2022/09/26 00:33:59;;;;;;;;;5.75;2.00;;;;;15.93;48.60;100735.06;5088655;27;46240;-40
2022/09/26 00:36:25;;;;;;;;;2.25;1.00;;;;;15.93;48.62;100732.44;5089557;27;45300;-39
2022/09/26 00:38:51;;;;;;;;;2.00;2.00;;;;;15.91;49.01;100736.94;5091388;27;45386;-39
2022/09/26 00:41:16;;;;;;;;;1.00;1.00;;;;;15.88;48.95;100730.03;5094048;27;66546;-39
2022/09/26 00:43:49;;;;;;;;;2.00;1.00;;;;;15.88;48.88;100729.16;5092178;27;46168;-39
2022/09/26 00:46:41;;;;;;;;;2.00;1.50;;;;;15.84;48.70;100720.53;5095996;27;45678;-40
2022/09/26 00:49:25;;;;;;;;;2.25;0.75;;;;;15.81;49.03;100718.06;5095484;27;45447;-40
2022/09/26 00:51:55;;;;;;;;;1.75;1.25;;;;;15.78;49.10;100720.84;5091368;27;45460;-40
2022/09/26 00:54:21;;;;;;;;;0.75;0.75;;;;;15.79;49.11;100713.78;5094389;27;47383;-40
2022/09/26 00:56:50;;;;;;;;;1.50;0.75;;;;;15.77;48.86;100713.84;5088033;27;58584;-39
2022/09/26 00:59:48;;;;;;;;;2.00;2.00;;;;;15.75;49.12;100713.09;5093810;27;45494;-40
2022/09/26 01:02:14;;;;;;;;;0.25;0.25;;;;;15.74;49.09;100708.69;5095125;27;45425;-39
2022/09/26 01:04:41;;;;;;;;;1.50;1.50;;;;;15.71;48.84;100707.06;5101470;27;46536;-39
2022/09/26 01:07:11;;;;;;;;;1.00;1.00;;;;;15.71;49.33;100703.59;5096693;27;45678;-39
2022/09/26 01:09:36;;;;;;;;;2.75;0.75;;;;;15.71;49.26;100704.44;5095976;27;45391;-39
2022/09/26 01:12:04;;;;;;;;;1.00;1.00;;;;;15.71;49.27;100699.16;5093345;27;66486;-40
2022/09/26 01:14:30;;;;;;;;;1.25;1.25;;;;;15.71;49.21;100699.16;5102735;27;45561;-39
2022/09/26 01:16:56;;;;;;;;;0.75;0.75;;;;;15.71;48.83;100695.66;5098415;27;46066;-40
2022/09/26 01:19:37;;;;;;;;;2.00;0.75;;;;;15.69;48.88;100703.66;5095604;27;45384;-39
2022/09/26 01:22:18;;;;;;;;;0.75;0.50;;;;;15.69;49.15;100701.00;5087601;27;45462;-40
2022/09/26 01:25:11;;;;;;;;;2.00;0.50;;;;;15.69;48.92;100710.72;5096802;27;45623;-38
2022/09/26 01:27:51;;;;;;;;;2.00;1.00;;;;;15.68;49.27;100698.44;5097761;27;45302;-37
2022/09/26 01:30:27;;;;;;;;;1.00;0.75;;;;;15.68;49.07;100701.94;5087290;27;45437;-40
2022/09/26 01:33:14;;;;;;;;;4.25;0.75;;;;;15.68;49.00;100695.81;5124570;27;45448;-40
2022/09/26 01:35:39;;;;;;;;;2.75;0.75;;;;;15.65;48.89;100693.31;5094876;27;46062;-40
2022/09/26 01:38:10;;;;;;;;;0.75;0.75;;;;;15.63;48.95;100695.19;5102984;27;45240;-40
2022/09/26 01:40:42;;;;;;;;;0.00;0.00;;;;;15.61;49.13;100694.41;5100143;27;45419;-40
2022/09/26 01:43:26;;;;;;;;;0.00;0.00;;;;;15.57;49.07;100691.06;5092802;27;45603;-40
2022/09/26 01:46:20;;;;;;;;;0.75;0.75;;;;;15.54;48.63;100688.56;5093150;27;45390;-40
2022/09/26 01:48:50;;;;;;;;;2.50;0.75;;;;;15.51;48.96;100688.69;5090806;27;45425;-39
2022/09/26 01:51:23;;;;;;;;;0.75;0.75;;;;;15.49;48.60;100685.28;5098316;27;45639;-40
2022/09/26 01:53:59;;;;;;;;;2.75;1.00;;;;;15.45;48.95;100674.03;5095288;27;45484;-40
2022/09/26 01:56:27;;;;;;;;;3.25;0.75;;;;;15.44;48.91;100676.75;5086691;27;45539;-40
2022/09/26 01:58:57;;;;;;;;;0.75;0.75;;;;;15.44;48.73;100666.19;5090107;27;45351;-40
2022/09/26 02:01:26;;;;;;;;;1.00;1.00;;;;;15.43;48.70;100662.72;5099579;27;45484;-39
2022/09/26 02:03:55;;;;;;;;;1.50;0.75;;;;;15.42;48.75;100660.16;5092074;27;45563;-38
2022/09/26 02:06:24;;;;;;;;;1.00;1.00;;;;;15.40;48.42;100657.56;5096186;27;45812;-40
2022/09/26 02:09:07;;;;;;;;;0.00;0.00;;;;;15.38;48.35;100646.25;5092855;27;45473;-38
2022/09/26 02:11:34;;;;;;;;;1.75;0.00;;;;;15.36;48.65;100648.13;5085802;27;45461;-38
2022/09/26 02:14:03;;;;;;;;;1.25;0.50;;;;;15.36;48.60;100643.69;5097225;27;45461;-39
2022/09/26 02:16:38;;;;;;;;;0.50;0.50;;;;;15.34;48.80;100637.63;5085176;27;46105;-39
2022/09/26 02:19:15;;;;;;;;;0.75;0.75;;;;;15.36;48.63;100632.28;5083378;27;46108;-39
2022/09/26 02:21:42;;;;;;;;;0.75;0.75;;;;;15.39;48.63;100632.16;5079484;27;45572;-39
2022/09/26 02:24:08;;;;;;;;;0.75;0.75;;;;;15.40;48.80;100630.38;5087681;27;73418;-38
2022/09/26 02:26:33;;;;;;;;;3.50;1.00;;;;;15.37;48.85;100619.03;5097856;27;74675;-38
2022/09/26 02:28:59;;;;;;;;;1.00;1.00;;;;;15.35;48.64;100613.00;5089376;27;68450;-38
2022/09/26 02:31:28;;;;;;;;;1.00;1.00;;;;;15.34;48.62;100618.34;5091724;27;45374;-38
2022/09/26 02:33:54;;;;;;;;;2.00;0.75;;;;;15.32;48.94;100610.50;5069380;27;45463;-39
2022/09/26 02:36:20;;;;;;;;;1.25;0.75;;;;;15.29;48.78;100609.78;5089690;27;45532;-39
2022/09/26 02:38:46;;;;;;;;;1.00;0.00;;;;;15.28;48.86;100608.06;5099065;27;49274;-38
2022/09/26 02:41:21;;;;;;;;;3.25;0.25;;;;;15.27;48.79;100598.47;5087345;27;45220;-39
2022/09/26 02:43:46;;;;;;;;;0.25;0.25;;;;;15.24;48.86;100599.47;5091026;27;45493;-38
2022/09/26 02:46:48;;;;;;;;;0.00;0.00;;;;;15.17;48.87;100587.50;5098352;27;45683;-39
2022/09/26 02:49:26;;;;;;;;;0.00;0.00;;;;;15.17;49.34;100579.59;5067935;27;45446;-38
2022/09/26 02:52:00;;;;;;;;;1.25;0.25;;;;;15.17;49.01;100564.66;5089860;27;45350;-39
2022/09/26 02:54:43;;;;;;;;;0.75;0.75;;;;;15.16;49.06;100562.94;5092265;27;45468;-38
2022/09/26 02:57:38;;;;;;;;;0.00;0.00;;;;;15.16;49.25;100552.41;5097722;27;46234;-38
2022/09/26 03:00:09;;;;;;;;;2.00;1.00;;;;;15.14;49.21;100545.50;5091277;27;45403;-38
2022/09/26 03:02:40;;;;;;;;;2.25;0.00;;;;;15.13;49.36;100543.78;5088388;27;45382;-39
2022/09/26 03:05:14;;;;;;;;;0.50;0.00;;;;;15.10;49.52;100547.44;5086179;27;45518;-38
2022/09/26 03:07:51;;;;;;;;;1.50;1.00;;;;;15.07;49.61;100542.31;5092437;27;46184;-38
2022/09/26 03:10:16;;;;;;;;;0.50;0.50;;;;;15.08;49.42;100538.72;5095070;27;45717;-38
2022/09/26 03:12:43;;;;;;;;;0.00;0.00;;;;;15.08;49.96;100536.09;5094377;27;68234;-39
2022/09/26 03:15:10;;;;;;;;;1.00;1.00;;;;;15.11;49.56;100527.19;5089646;27;45479;-38
2022/09/26 03:17:39;;;;;;;;;0.75;0.75;;;;;15.11;49.94;100524.56;5078376;27;45561;-38
2022/09/26 03:20:12;;;;;;;;;0.50;0.50;;;;;15.11;49.57;100514.03;5095359;27;45286;-38
2022/09/26 03:22:38;;;;;;;;;0.75;0.50;;;;;15.10;49.89;100509.66;5087950;27;45537;-38
2022/09/26 03:25:05;;;;;;;;;0.75;0.75;;;;;15.07;49.76;100505.41;5079205;27;45310;-38
2022/09/26 03:27:30;;;;;;;;;0.75;0.75;;;;;15.08;49.62;100501.00;5098533;27;46995;-38
2022/09/26 03:29:58;;;;;;;;;1.50;0.50;;;;;15.05;49.80;100501.13;5080699;27;45796;-38
2022/09/26 03:32:23;;;;;;;;;1.75;1.00;;;;;15.05;49.54;100499.38;5095116;27;45370;-39
2022/09/26 03:34:49;;;;;;;;;0.00;0.00;;;;;15.05;49.90;100490.59;5095156;27;47066;-38
2022/09/26 03:37:15;;;;;;;;;0.00;0.00;;;;;15.05;50.12;100494.09;5096027;27;46122;-38
2022/09/26 03:39:41;;;;;;;;;1.00;1.00;;;;;15.07;49.71;100486.97;5095240;27;45409;-38
2022/09/26 03:42:07;;;;;;;;;0.75;0.75;;;;;15.08;50.11;100477.25;5093516;27;45349;-38
2022/09/26 03:44:32;;;;;;;;;0.50;0.50;;;;;15.07;49.79;100468.50;5090725;27;45371;-38
2022/09/26 03:46:57;;;;;;;;;1.00;1.00;;;;;15.09;49.88;100465.81;5093028;27;63160;-38
2022/09/26 03:49:22;;;;;;;;;0.00;0.00;;;;;15.11;50.03;100466.56;5084600;27;72761;-38
2022/09/26 03:51:48;;;;;;;;;1.75;0.50;;;;;15.12;50.16;100461.25;5092689;27;45248;-39
2022/09/26 03:54:13;;;;;;;;;0.75;0.75;;;;;15.15;49.92;100470.75;5095319;27;45491;-38
2022/09/26 03:56:40;;;;;;;;;0.50;0.50;;;;;15.15;50.00;100460.22;5095882;27;45436;-39
2022/09/26 03:59:05;;;;;;;;;0.75;0.75;;;;;15.14;50.07;100458.53;5096620;27;45359;-38
2022/09/26 04:01:30;;;;;;;;;1.75;0.75;;;;;15.15;50.05;100457.56;5093915;27;45821;-39
2022/09/26 04:03:56;;;;;;;;;0.75;0.75;;;;;15.15;50.02;100450.50;5096826;27;70148;-38
2022/09/26 04:06:22;;;;;;;;;0.00;0.00;;;;;15.17;49.95;100455.72;5091396;27;45463;-38
2022/09/26 04:08:49;;;;;;;;;1.75;0.00;;;;;15.14;49.67;100442.72;5094888;27;45263;-38
2022/09/26 04:11:18;;;;;;;;;0.25;0.25;;;;;15.14;49.48;100438.28;5098468;27;45468;-41
2022/09/26 04:13:43;;;;;;;;;0.25;0.25;;;;;15.15;49.45;100428.59;5092981;27;45663;-38
2022/09/26 04:16:10;;;;;;;;;0.00;0.00;;;;;15.15;49.82;100421.53;5085131;27;45568;-39
2022/09/26 04:18:35;;;;;;;;;0.75;0.50;;;;;15.14;49.70;100414.56;5084400;27;45265;-39
2022/09/26 04:21:06;;;;;;;;;1.50;0.50;;;;;15.16;49.31;100415.31;5081060;27;45317;-38
2022/09/26 04:23:34;;;;;;;;;0.50;0.50;;;;;15.15;49.55;100405.72;5088537;27;45397;-39
2022/09/26 04:26:04;;;;;;;;;1.75;0.00;;;;;15.18;49.56;100396.81;5095801;27;45239;-39
2022/09/26 04:28:30;;;;;;;;;0.25;0.25;;;;;15.16;49.21;100390.75;5096121;27;45362;-39
2022/09/26 04:30:59;;;;;;;;;0.25;0.25;;;;;15.16;49.60;100388.13;5095835;27;45828;-39
2022/09/26 04:33:24;;;;;;;;;0.50;0.50;;;;;15.17;49.55;100381.91;5095858;27;45488;-39
2022/09/26 04:35:50;;;;;;;;;1.25;0.00;;;;;15.17;49.74;100379.28;5094080;27;61038;-39
2022/09/26 04:38:17;;;;;;;;;2.50;1.25;;;;;15.18;49.29;100376.56;5094302;27;73301;-39
2022/09/26 04:40:43;;;;;;;;;0.75;0.50;;;;;15.17;49.60;100371.38;5092856;27;45544;-39
2022/09/26 04:43:08;;;;;;;;;0.00;0.00;;;;;15.15;49.63;100366.16;5093013;27;45372;-39
2022/09/26 04:45:33;;;;;;;;;0.00;0.00;;;;;15.16;49.26;100367.03;5093421;27;66407;-39
2022/09/26 04:47:59;;;;;;;;;1.75;0.25;;;;;15.16;49.05;100346.81;5093433;27;46356;-39
2022/09/26 04:50:25;;;;;;;;;2.75;1.00;;;;;15.17;49.15;100340.59;5090262;27;45527;-39
2022/09/26 04:52:50;;;;;;;;;0.25;0.25;;;;;15.18;49.67;100346.72;5093719;27;45487;-39
2022/09/26 04:55:15;;;;;;;;;0.75;0.75;;;;;15.17;49.38;100347.63;5085342;27;45938;-39
2022/09/26 04:57:41;;;;;;;;;0.25;0.00;;;;;15.16;49.33;100346.81;5090759;27;62294;-39
2022/09/26 05:00:11;;;;;;;;;0.50;0.50;;;;;15.18;49.39;100349.34;5095970;27;45297;-39
2022/09/26 05:02:37;;;;;;;;;2.00;1.00;;;;;15.17;49.51;100343.25;5094854;27;45492;-38
2022/09/26 05:05:04;;;;;;;;;1.00;0.75;;;;;15.17;49.83;100337.97;5095859;27;46089;-38
2022/09/26 05:07:30;;;;;;;;;1.75;0.00;;;;;15.18;49.84;100336.19;5092643;27;45691;-39
2022/09/26 05:09:56;;;;;;;;;0.00;0.00;;;;;15.18;49.36;100334.38;5091379;27;45479;-39
2022/09/26 05:12:21;;;;;;;;;2.50;0.50;;;;;15.18;49.58;100325.63;5095106;27;50792;-38
2022/09/26 05:14:46;;;;;;;;;0.75;0.75;;;;;15.18;49.67;100310.66;5095094;27;45472;-38
2022/09/26 05:17:12;;;;;;;;;1.25;0.00;;;;;15.18;49.53;100299.28;5086270;27;57031;-38
2022/09/26 05:19:37;;;;;;;;;1.25;0.50;;;;;15.18;49.32;100294.00;5093991;27;45458;-38
2022/09/26 05:22:03;;;;;;;;;1.50;0.75;;;;;15.15;49.74;100284.47;5092843;27;70792;-39
2022/09/26 05:27:13;;;;;;;;;0.75;0.75;;;;;15.12;49.64;100279.38;5097002;27;45486;-38
2022/09/26 05:29:38;;;;;;;;;2.25;0.75;;;;;15.14;49.37;100274.03;5088132;27;46058;-39
2022/09/26 05:32:03;;;;;;;;;1.50;1.50;;;;;15.16;49.79;100277.44;5087729;27;45451;-38
2022/09/26 05:34:29;;;;;;;;;0.50;0.50;;;;;15.15;49.37;100263.38;5093084;27;45525;-38
2022/09/26 05:36:55;;;;;;;;;1.25;0.50;;;;;15.17;49.40;100269.44;5089158;27;45221;-38
2022/09/26 05:42:04;;;;;;;;;0.50;0.50;;;;;15.18;49.42;100270.28;5096970;27;45225;-38
2022/09/26 05:44:30;;;;;;;;;1.25;1.00;;;;;15.18;49.40;100275.56;5091757;27;46291;-38
2022/09/26 05:46:56;;;;;;;;;1.75;0.75;;;;;15.15;49.67;100267.81;5088002;27;45375;-38
2022/09/26 05:49:21;;;;;;;;;0.75;0.75;;;;;15.15;49.82;100263.38;5092254;27;45194;-38
2022/09/26 05:51:47;;;;;;;;;2.50;1.00;;;;;15.15;49.91;100268.66;5086322;27;45461;-39
2022/09/26 05:54:12;;;;;;;;;2.50;0.00;;;;;15.17;49.67;100273.84;5092743;27;46038;-38
2022/09/26 05:56:37;;;;;;;;;2.75;1.75;;;;;15.17;49.94;100266.81;5090741;27;45405;-38
2022/09/26 05:59:04;;;;;;;;;1.00;0.75;;;;;15.17;49.49;100260.66;5086625;27;60326;-38
2022/09/26 06:01:30;;;;;;;;;0.50;0.50;;;;;15.18;49.83;100259.75;5087386;27;45410;-39
2022/09/26 06:03:56;;;;;;;;;1.00;0.50;;;;;15.15;49.66;100255.47;5094369;27;46288;-43
2022/09/26 06:06:22;;;;;;;;;3.00;0.50;;;;;15.14;49.95;100260.84;5094226;27;45407;-39
2022/09/26 06:08:47;;;;;;;;;1.00;1.00;;;;;15.12;49.82;100257.41;5092029;27;45972;-38
2022/09/26 06:11:15;;;;;;;;;1.50;0.50;;;;;15.11;49.67;100263.63;5095970;27;68116;-39
2022/09/26 06:13:50;;;;;;;;;0.75;0.75;;;;;15.08;49.96;100262.00;5092795;27;47279;-39
2022/09/26 06:16:19;;;;;;;;;1.00;0.50;;;;;15.07;50.34;100248.91;5094753;27;45422;-41
2022/09/26 06:18:49;;;;;;;;;3.75;1.25;;;;;15.03;50.20;100253.50;5095040;27;45383;-39
2022/09/26 06:21:16;;;;;;;;;0.75;0.75;;;;;15.00;50.26;100249.25;5094118;27;45571;-39
2022/09/26 06:23:42;;;;;;;;;2.50;1.00;;;;;15.02;50.32;100248.31;5097533;27;46691;-38
2022/09/26 06:26:17;;;;;;;;;3.00;1.50;;;;;15.00;50.37;100248.41;5097573;27;45558;-40
2022/09/26 06:28:43;;;;;;;;;1.25;1.25;;;;;15.03;50.33;100242.94;5111244;27;45449;-38
2022/09/26 06:31:10;;;;;;;;;3.50;0.75;;;;;15.05;50.28;100248.13;5088550;27;47030;-39
2022/09/26 06:33:35;;;;;;;;;3.00;0.50;;;;;15.07;50.09;100251.53;5088591;27;46277;-38
2022/09/26 06:36:02;;;;;;;;;2.00;1.00;;;;;15.06;50.38;100242.78;5098941;27;57991;-38
2022/09/26 06:38:28;;;;;;;;;1.00;1.00;;;;;15.06;50.35;100229.63;5094271;27;45419;-40
2022/09/26 06:40:53;;;;;;;;;2.25;1.75;;;;;15.07;50.55;100236.59;5096557;27;45393;-38
2022/09/26 06:43:19;;;;;;;;;1.75;1.75;;;;;15.05;50.55;100230.56;5080781;27;46044;-39
2022/09/26 06:45:47;;;;;;;;;2.75;1.50;;;;;15.06;50.64;100223.50;5084583;27;45803;-38
2022/09/26 06:48:13;;;;;;;;;4.50;3.00;;;;;15.05;50.77;100227.94;5099225;27;45243;-39
2022/09/26 06:50:39;;;;;;;;;3.00;1.00;;;;;15.06;50.72;100218.22;5087384;27;45964;-39
2022/09/26 06:53:05;;;;;;;;;3.50;1.75;;;;;15.07;50.51;100222.56;5101920;27;45485;-39
2022/09/26 06:55:30;;;;;;;;;3.00;2.25;;;;;15.05;50.42;100214.75;5090857;27;45483;-39
2022/09/26 06:57:57;;;;;;;;;2.00;1.00;;;;;15.05;50.94;100214.75;5091186;27;54263;-40
2022/09/26 07:00:23;;;;;;;;;3.50;2.50;;;;;15.05;50.51;100212.13;5094839;27;45495;-39
2022/09/26 07:02:53;;;;;;;;;3.50;2.00;;;;;15.06;50.62;100203.25;5090871;27;46339;-39
2022/09/26 07:05:19;;;;;;;;;1.00;1.00;;;;;15.10;50.67;100202.19;5093026;27;45508;-38
2022/09/26 07:07:47;;;;;;;;;2.25;0.75;;;;;15.10;50.61;100185.50;5089439;27;45486;-38
2022/09/26 07:10:14;;;;;;;;;1.50;1.50;;;;;15.10;50.27;100191.63;5096019;27;45324;-40
2022/09/26 07:12:42;;;;;;;;;1.25;1.25;;;;;15.10;50.54;100188.13;5095531;27;46544;-39
2022/09/26 07:15:09;;;;;;;;;3.50;0.75;;;;;15.11;50.74;100179.31;5093672;27;45810;-39
2022/09/26 07:17:35;;;;;;;;;3.75;1.75;;;;;15.10;50.24;100172.31;5085492;27;45446;-40
2022/09/26 07:20:00;;;;;;;;;3.50;1.50;;;;;15.09;50.55;100155.66;5089832;27;45309;-38
2022/09/26 07:22:26;;;;;;;;;1.25;1.25;;;;;15.11;50.06;100159.06;5081388;27;46079;-38
2022/09/26 07:24:51;;;;;;;;;1.75;0.75;;;;;15.07;50.40;100146.13;5092634;27;45339;-38
2022/09/26 07:27:17;;;;;;;;;4.00;1.25;;;;;15.12;50.23;100150.22;5093796;27;45331;-38
2022/09/26 07:29:44;;;;;;;;;2.50;1.50;;;;;15.11;50.16;100151.16;5095457;27;45349;-38
2022/09/26 07:32:10;;;;;;;;;2.00;1.50;;;;;15.14;50.00;100140.44;5087550;27;47167;-38
2022/09/26 07:34:35;;;;;;;;;3.50;1.00;;;;;15.16;50.45;100132.47;5096112;27;45489;-38
2022/09/26 07:37:00;;;;;;;;;4.50;3.00;;;;;15.18;50.44;100125.31;5099081;27;50820;-38
2022/09/26 07:39:26;;;;;;;;;4.75;4.00;;;;;15.23;49.99;100130.31;5091472;27;66825;-38
2022/09/26 07:41:52;;;;;;;;;4.50;4.50;;;;;15.25;50.04;100118.75;5098137;27;46207;-38
2022/09/26 07:44:17;;;;;;;;;2.25;2.00;;;;;15.29;50.35;100116.81;5097505;27;45455;-38
2022/09/26 07:52:10;;;;;;;;;4.75;3.00;;;;;15.42;50.14;100109.88;5098458;27;45829;-39
2022/09/26 07:54:35;;;;;;;;;5.00;1.50;;;;;15.43;50.25;100110.75;5096801;27;69952;-38
2022/09/26 07:57:03;;;;;;;;;2.25;1.75;;;;;15.47;49.93;100107.00;5088625;27;45486;-39
2022/09/26 07:59:31;;;;;;;;;0.75;0.75;;;;;15.48;50.24;100112.19;5088590;27;46483;-39
2022/09/26 08:01:56;;;;;;;;;1.25;0.75;;;;;15.52;50.16;100103.16;5088575;27;45459;-39
2022/09/26 08:04:22;;;;;;;;;2.50;1.50;;;;;15.54;49.92;100108.34;5087865;27;45524;-39
2022/09/26 08:06:48;;;;;;;;;1.50;0.25;;;;;15.55;50.06;100102.13;5088013;27;45379;-39
2022/09/26 08:09:14;;;;;;;;;4.75;3.75;;;;;15.56;49.79;100095.91;5099035;27;45378;-39
2022/09/26 08:11:40;;;;;;;;;3.00;1.00;;;;;15.59;49.63;100106.28;5097196;27;45853;-38
2022/09/26 08:14:06;;;;;;;;;1.75;1.75;;;;;15.62;49.82;100095.56;5082944;27;45725;-39
2022/09/26 08:16:31;;;;;;;;;2.00;2.00;;;;;15.63;49.86;100091.97;5094778;27;63287;-39
2022/09/26 08:18:57;;;;;;;;;1.00;1.00;;;;;15.62;49.70;100079.72;5099332;27;45473;-39
2022/09/26 08:21:23;;;;;;;;;4.50;1.00;;;;;15.67;49.69;100082.09;5098740;27;45519;-38
2022/09/26 08:23:48;;;;;;;;;1.75;1.75;;;;;15.70;49.81;100084.56;5107280;27;45403;-39
2022/09/26 08:26:14;;;;;;;;;4.00;2.25;;;;;15.74;49.70;100081.69;5089053;27;49386;-38
2022/09/26 08:28:39;;;;;;;;;1.75;1.75;;;;;15.78;49.24;100071.81;5097544;27;45352;-38
2022/09/26 08:31:05;;;;;;;;;1.50;1.50;;;;;15.82;49.09;100069.81;5087836;27;75684;-38
2022/09/26 08:33:39;;;;;;;;;2.25;1.00;;;;;15.87;49.12;100068.59;5086251;27;45912;-38
2022/09/26 08:36:09;;;;;;;;;2.00;1.00;;;;;15.91;49.10;100067.47;5088280;27;45492;-38
2022/09/26 08:38:35;;;;;;;;;4.00;1.00;;;;;15.92;48.76;100063.91;5090806;27;45302;-38
2022/09/26 08:41:31;;;;;;;;;2.75;1.75;;;;;15.93;49.01;100056.81;5085680;27;45316;-38
2022/09/26 08:44:21;;;;;;;;;4.00;2.75;;;;;15.97;48.62;100055.72;5122475;27;45370;-38
2022/09/26 08:46:55;;;;;;;;;3.00;1.25;;;;;16.03;48.66;100049.22;5130056;27;45570;-38
2022/09/26 08:50:06;;;;;;;;;3.00;3.00;;;;;16.08;48.73;100037.44;5094874;27;45503;-38
2022/09/26 08:52:40;;;;;;;;;2.00;2.00;;;;;16.14;48.86;100050.25;5031114;28;45579;-39
2022/09/26 08:55:14;;;;;;;;;3.00;3.00;;;;;16.21;48.93;100029.59;5077785;27;45492;-38
2022/09/26 08:58:02;;;;;;;;;3.75;3.00;;;;;16.27;48.68;100026.59;5083243;27;45355;-39
2022/09/26 09:00:30;;;;;;;;;4.50;2.00;;;;;16.35;48.38;100030.56;5080188;27;45362;-39
2022/09/26 09:03:05;;;;;;;;;2.00;2.00;;;;;16.37;48.06;100020.75;5087652;27;46389;-39
2022/09/26 09:05:33;;;;;;;;;2.25;2.25;;;;;16.42;47.68;100024.78;5096315;27;45902;-39
2022/09/26 09:08:00;;;;;;;;;3.50;2.00;;;;;16.48;47.41;100031.47;5085658;27;45337;-38
2022/09/26 09:10:36;;;;;;;;;1.00;1.00;;;;;16.53;47.74;100024.09;5096173;27;45310;-39
2022/09/26 09:13:39;;;;;;;;;2.25;2.25;;;;;16.62;46.89;100012.09;5091161;27;46867;-39
2022/09/26 09:16:07;;;;;;;;;2.25;1.00;;;;;16.67;47.42;99996.81;5088995;27;45157;-39
2022/09/26 09:18:57;;;;;;;;;4.00;1.75;;;;;16.74;47.41;99984.91;5100150;27;45287;-39
2022/09/26 09:21:37;;;;;;;;;2.75;2.00;;;;;16.84;47.46;99985.19;5092656;27;45365;-38
2022/09/26 09:24:12;;;;;;;;;3.50;3.00;;;;;16.92;47.28;99984.69;5091950;27;46144;-40
2022/09/26 09:26:54;;;;;;;;;2.50;1.00;;;;;16.97;46.60;99980.78;5088233;27;46624;-39
2022/09/26 09:30:10;;;;;;;;;1.50;1.00;;;;;17.01;46.43;99962.94;5093726;27;45359;-40
2022/09/26 09:32:48;;;;;;;;;2.00;2.00;;;;;17.03;46.24;99959.25;5036024;28;46486;-40
2022/09/26 09:35:16;;;;;;;;;4.50;2.00;;;;;17.04;46.36;99938.94;5035659;28;45336;-40
2022/09/26 09:37:48;;;;;;;;;2.25;2.00;;;;;17.05;46.02;99949.41;5071670;27;45897;-39
2022/09/26 09:40:24;;;;;;;;;3.75;2.00;;;;;17.05;46.20;99936.19;5090515;27;45360;-39
2022/09/26 09:42:58;;;;;;;;;1.00;1.00;;;;;17.04;45.64;99936.28;5094429;27;45378;-39
2022/09/26 09:45:38;;;;;;;;;1.75;1.75;;;;;17.04;46.00;99931.00;5098108;27;45452;-39
2022/09/26 09:48:08;;;;;;;;;2.50;2.25;;;;;17.05;46.16;99924.75;5095533;27;45447;-39
2022/09/26 09:50:42;;;;;;;;;4.50;3.00;;;;;17.06;45.42;99922.00;5095436;27;45299;-39
2022/09/26 09:53:11;;;;;;;;;2.00;2.00;;;;;17.09;45.83;99913.03;5088622;27;45537;-39
2022/09/26 09:55:59;;;;;;;;;1.75;1.75;;;;;17.13;45.50;99921.63;5110165;27;46051;-39
2022/09/26 09:58:57;;;;;;;;;1.00;1.00;;;;;17.14;45.54;99913.59;5098624;27;45361;-39
2022/09/26 10:01:51;;;;;;;;;3.00;1.75;;;;;17.15;45.50;99911.78;5074828;27;45335;-39
2022/09/26 10:04:34;;;;;;;;;1.00;1.00;;;;;17.18;45.71;99898.34;5093723;27;45370;-39
2022/09/26 10:07:00;;;;;;;;;3.00;1.00;;;;;17.20;45.66;99901.75;5094820;27;45354;-39
2022/09/26 10:09:29;;;;;;;;;2.00;1.75;;;;;17.20;45.66;99888.53;5100767;27;45334;-39
2022/09/26 10:11:55;;;;;;;;;1.00;1.00;;;;;17.20;45.26;99888.53;5097961;27;45373;-39
2022/09/26 10:14:38;;;;;;;;;1.00;1.00;;;;;17.20;45.70;99877.94;5098593;27;45338;-39
2022/09/26 10:17:09;;;;;;;;;5.75;3.00;;;;;17.24;45.84;99882.06;5110347;27;47055;-40
2022/09/26 10:19:37;;;;;;;;;5.75;5.50;;;;;17.27;45.78;99868.63;5098908;27;45732;-39
2022/09/26 10:22:08;;;;;;;;;3.50;3.00;;;;;17.31;45.71;99871.91;5097418;27;45268;-40
2022/09/26 10:24:45;;;;;;;;;4.00;3.00;;;;;17.34;45.68;99858.50;5099761;27;45441;-39
2022/09/26 10:27:23;;;;;;;;;3.00;2.75;;;;;17.36;45.83;99841.53;5095696;27;45446;-39
2022/09/26 10:29:59;;;;;;;;;6.25;3.00;;;;;17.32;45.78;99824.22;5092975;27;45346;-39
2022/09/26 10:32:28;;;;;;;;;4.75;3.25;;;;;17.26;45.64;99817.56;5100743;27;45334;-39
2022/09/26 10:35:17;;;;;;;;;6.00;3.25;;;;;17.24;45.80;99824.72;5088925;27;45345;-39
2022/09/26 10:37:48;;;;;;;;;4.50;3.00;;;;;17.17;45.78;99827.91;5089347;27;45412;-39
2022/09/26 10:43:19;;;;;;;;;9.25;4.75;;;;;17.19;46.72;99839.22;5099498;27;45478;-39
2022/09/26 10:45:47;;;;;;;;;8.50;3.00;;;;;17.21;46.41;99819.66;5097070;27;45438;-39
2022/09/26 10:48:20;;;;;;;;;2.25;2.25;;;;;17.22;46.68;99829.28;5094858;27;46947;-39
2022/09/26 10:50:50;;;;;;;;;3.00;2.00;;;;;17.21;47.03;99821.44;5088871;27;45599;-39
2022/09/26 10:53:18;;;;;;;;;7.25;4.50;;;;;17.18;47.45;99816.41;5088674;27;45351;-39
2022/09/26 10:55:52;;;;;;;;;3.75;3.25;;;;;17.13;48.00;99814.06;5089095;27;45576;-39
2022/09/26 10:58:22;;;;;;;;;7.00;4.00;;;;;17.10;49.16;99797.56;5096864;27;46115;-39
2022/09/26 11:00:51;;;;;;;;;3.50;3.25;;;;;17.08;49.09;99795.84;5098295;27;45237;-40
2022/09/26 11:03:19;;;;;;;;;4.00;2.25;;;;;17.06;48.90;99791.66;5111842;27;45354;-39
2022/09/26 11:05:55;;;;;;;;;6.75;3.00;;;;;17.02;48.63;99784.88;5098904;27;45540;-39
2022/09/26 11:08:23;;;;;;;;;2.75;2.25;;;;;16.98;49.15;99786.91;5089917;27;46135;-39
2022/09/26 11:10:49;;;;;;;;;3.25;2.00;;;;;16.88;49.30;99784.03;5086538;27;45457;-39
2022/09/26 11:13:37;;;;;;;;;3.25;2.25;;;;;16.81;50.58;99782.72;5088360;27;58595;-39
2022/09/26 11:16:12;;;;;;;;;3.50;3.00;;;;;16.70;50.35;99778.19;5084239;27;45413;-39
2022/09/26 11:18:44;;;;;;;;;3.75;3.50;;;;;16.65;50.92;99782.91;5097310;27;46225;-39
2022/09/26 11:21:16;;;;;;;;;3.75;3.00;;;;;16.60;51.72;99770.97;5090708;27;45478;-39
2022/09/26 11:23:51;;;;;;;;;3.00;3.00;;;;;16.53;51.07;99770.53;5097564;27;45263;-39
2022/09/26 11:26:22;;;;;;;;;5.25;4.00;;;;;16.49;51.75;99763.78;5096477;27;45437;-40
2022/09/26 11:29:02;;;;;;;;;5.75;3.00;;;;;16.48;51.94;99757.66;5095858;27;45553;-39
2022/09/26 11:31:29;;;;;;;;;3.00;2.00;;;;;16.43;52.29;99758.91;5092010;27;45301;-40
2022/09/26 11:33:58;;;;;;;;;1.00;1.00;;;;;16.41;52.65;99755.53;5077705;27;45387;-39
2022/09/26 11:36:47;;;;;;;;;2.75;2.50;;;;;16.31;53.27;99755.31;5093172;27;58687;-39
2022/09/26 11:39:49;;;;;;;;;2.75;2.75;;;;;16.21;53.59;99748.94;5089614;27;47352;-39
2022/09/26 11:42:40;;;;;;;;;3.00;2.00;;;;;16.17;53.66;99744.81;5083369;27;45977;-39
2022/09/26 11:45:46;;;;;;;;;8.50;4.00;;;;;16.10;54.76;99726.72;5083452;27;45421;-39
2022/09/26 11:48:24;;;;;;;;;6.50;3.00;;;;;16.03;54.94;99720.16;5091062;27;45725;-39
2022/09/26 11:51:14;;;;;;;;;2.50;2.25;;;;;15.87;54.27;99707.13;5099335;27;46258;-39
2022/09/26 11:54:13;;;;;;;;;3.75;3.25;;;;;15.83;55.81;99707.44;5097482;27;45511;-39
2022/09/26 11:56:53;;;;;;;;;4.25;2.00;;;;;15.72;55.62;99706.31;5089465;27;45463;-39
2022/09/26 11:59:26;;;;;;;;;4.75;4.00;;;;;15.62;58.78;99702.59;5095684;27;45446;-39